EGLC/LCY METAR and TAF weather

Enter ICAO airport designator
Station Type Date Time Source
EGLC METAR 2019/05/27 09:20 UTC NOAA

EGLC 270920Z AUTO 26011KT 9999 NCD 16/08 Q1011


Station Type Date Time Source
EGLC Decoded METAR 2019/05/27 09:20 UTC NOAA

London City Airport, United Kingdom (EGLC) 51-30N 000-30W
May 27, 2019 - 05:20 AM EDT / 2019.05.27 0920 UTC
Wind: from the W (260 degrees) at 13 MPH (11 KT):0
Visibility: greater than 7 mile(s):0
Temperature: 60 F (16 C)
Dew Point: 46 F (8 C)
Relative Humidity: 58%
Pressure (altimeter): 29.85 in. Hg (1011 hPa)
ob: EGLC 270920Z AUTO 26011KT 9999 NCD 16/08 Q1011
cycle: 9

Station Type Date Time Source
EGLC TAF 2018/10/15 21:30 UTC NOAA

TAF EGLC 152119Z 1521/1621 CNL

Example: see airport list